LFSB/MLH METAR and TAF weather

Enter ICAO airport designator
Station Type Date Time Source
LFSB METAR 2022/06/25 22:00 UTC NOAA

LFSB 252200Z AUTO 27016KT 6000 RA VCTS FEW048/// BKN070/// OVC090/// ///CB 17/15 Q1015 TEMPO 2000 TSRA BECMG 12007KT


Station Type Date Time Source
LFSB Decoded METAR 2022/06/25 22:00 UTC NOAA

Bale-Mulhouse, France (LFSB) 47-36N 007-31E 271M
Jun 25, 2022 - 06:00 PM EDT / 2022.06.25 2200 UTC
Wind: from the W (270 degrees) at 18 MPH (16 KT):0
Visibility: 3 mile(s):0
Sky conditions: overcast
Weather: rain; thunder in the vicinity; Cumulonimbus clouds observed
Temperature: 62 F (17 C)
Dew Point: 59 F (15 C)
Relative Humidity: 88%
Pressure (altimeter): 29.97 in. Hg (1015 hPa)
ob: LFSB 252200Z AUTO 27016KT 6000 RA VCTS FEW048/// BKN070/// OVC090/// ///CB 17/15 Q1015 TEMPO 2000 TSRA BECMG 12007KT
cycle: 22

Station Type Date Time Source
LFSB TAF 2022/06/25 18:21 UTC NOAA

TAF TAF LFSB 251700Z 2518/2618 12007KT CAVOK
TEMPO 2519/2524 -SHRA FEW050CB BKN080 PROB40
TEMPO 2521/2523 28020G35KT 2000 TSRA SCT050CB
BECMG 2610/2612 35010KT FEW050CB
TEMPO 2612/2618 -SHRA

Example: see airport list